Tipton, TN (38071)

5:04 PM CDT on July 30, 2015 (GMT -0500)
KTNMUNFO2 | | Change Station
CLOSE
Current Station
Personal Weather Station
Location: Munford, TN
Elevation: 394 ft
Nearby Weather Stations
Active Advisory: Flood Advisory Active Notice: Record Report

Elev 394 ft 35.42 °N, 89.83 °W | Updated 8 minutes ago

Clear
Clear
85.1 °F
Feels Like 86 °F
N
5.8
Wind Variable Wind from NW

Today
High -- | Low -- °F
--% Chance of Precip.
Yesterday
High -- | Low -- °F
Precip. -- in
6:06 AM 8:04 PM
Full, 100% visible
Pressure 30.05 in
Visibility 10.0 miles
Clouds Few 25000 ft
Heat Index 86 °F
Dew Point 63 °F
Humidity 47%
Rainfall 0.00 in
Snow Depth Not available.
UV 4 out of 12
Pollen 6.10 out of 12
Air Quality Not available.
Flu Activity Not available.
METAR KNQA 302150Z 02008KT 10SM FEW250 34/22 A3005

More Conditions Fewer Conditions

Pressure 30.05 in
Visibility 10.0 miles
Clouds Few 25000 ft
Heat Index 86 °F
Dew Point 63 °F
Humidity 47%
Rainfall 0.00 in
Snow Depth Not available.
UV 4 out of 12
Pollen 6.10 out of 12
Air Quality Not available.
Flu Activity Not available.
METAR KNQA 302150Z 02008KT 10SM FEW250 34/22 A3005

More Conditions Fewer Conditions

10-Day Weather Forecast

×

Almanac

Astronomy

Jul. 30, 2015 Rise Set
Actual Time
Civil Twilight
Nautical Twilight
Astronomical Twilight
Moon
Length of Visible Light
Length of Day
Tomorrow will be .
, % of the Moon is Illuminated

Today's Extremes

State Highs State Lows

Community

WunderPhotos

Upload Photos

1,842,514 photos uploaded!

WunderBlogs® & News

Nearby

Air Quality

  Air Quality AQ Index Pollutant
Not available.

Snow Depth

Station Depth Elevation

Earthquake Activity

City Distance Mag. Time & Date
Minimum magnitude displayed is 2.5.

Coastal Water Temperatures

Place Temperature

Stations

Nearby Weather Stations

Station Location Temp. Windchill Dew Point Humidity Wind Precip. Elev Updated Type
                   
Flood Advisory
Statement as of 11:33 AM CDT on July 30, 2015

The Flood Advisory continues for
the Mississippi River at Osceola
* until Sunday August 02.
* At 11 am Thursday the stage was 25.8 feet.
* Flood stage is 28.0 feet.
* Forecast... the river will rise to near 25.6 feet Thursday July 30.
* At 26.0 feet... in Tennessee, Crutcher Lake Road is flooding near
cold creek. Cold creek is going over its South Bank onto resort
lots just east of Crutcher Lake Road. Water from the lower Forked
Deer river is backing into Open Lake. Cold creek is now flowing
south out of Open Lake. Jones Slough is about to back north over
Grammer Road. Adams Slough has flooded Sam Taylor Road. Many
sloughs are beginning to flood fields. Brandywine Camp begins to go
under water.


Lat... Lon 3582 8996 3582 8956 3560 8979 3539 8995
      3539 9025